Airfield :







YOU CAN JOIN US ON...

 
LOGIN :

Register | Disclaimer

   EN    FR    IT 

 









Legend :    VFR   Marginal VFR   IFR   Intensive IFR   Very Intensive IFR
Visi :
Ceiling :
>= 8 km
>= 3000ft
5 to 8 km
1000 to 3000 ft
1500m to 5 km
500 to 1000 ft
800 to 1500m
200 to 500 ft
< 800m
< 200 ft
Symbols :   Thunderstorms  Fog  Heavy snow  Heavy precipitations  Wind > 20 kt






- Airport Elevation : 49 ft


KOWD - Norwood Memorial

CURRENT METAR :
  • 260153Z AUTO 10012G16KT 3SM RA OVC007 10/07 A2974 RMK AO2 PRESFR SLP069 P0019 T01000067

EXPIRED METARs :
  • 260053Z 10014G20KT 5SM -RA OVC009 09/06 A2979 RMK AO2 CIG 006V012 SLP088 P0007 T00940061
  • 260024Z 10012G19KT 2 1/2SM -RA OVC007 09/06 A2983 RMK AO2 CIG 005V010 P0002 T00890061
  • 260012Z 09009KT 3SM -RA OVC007 09/06 A2983 RMK AO2 P0001 T00890061
  • 252353Z 08014G19KT 2SM RA OVC007 09/06 A2985 RMK AO2 SLP106 P0008 60009 T00890056 10089 20078 55039
  • 252336Z 08013G20KT 3SM -RA BKN007 OVC042 09/06 A2987 RMK AO2 P0006 T00890056
  • 252325Z 09013G22KT 1 3/4SM RA OVC006 09/06 A2989 RMK AO2 P0005 T00890056

TAF N/A



MET'MAP, your aeronautical weather chart ! - Copyright ORBIFLY December 2007 - Disclaimer

ORBIFLY MET'MAP TEAM :

Programming & Development : Alexandra Zaïnal
Concept & original design : Baudouin d'Aumeries
Assistance for programming : Marc-Olivier Méhu
Technical & hardware support : Manuel Goepfert

Contact : metmap@orbifly.com




SOURCES & CREDITS :

   NOAA